sensor_id;sensor_type;location;lat;lon;timestamp;P1;durP1;ratioP1;P2;durP2;ratioP2
18796;SDS011;9526;52.612;13.300;2023-08-06T00:01:06;7.55;;;4.72;;
18796;SDS011;9526;52.612;13.300;2023-08-06T00:03:30;7.60;;;5.05;;
18796;SDS011;9526;52.612;13.300;2023-08-06T00:05:54;6.82;;;4.68;;
18796;SDS011;9526;52.612;13.300;2023-08-06T00:08:17;8.88;;;5.07;;
18796;SDS011;9526;52.612;13.300;2023-08-06T00:10:41;8.15;;;4.88;;
18796;SDS011;9526;52.612;13.300;2023-08-06T00:13:06;7.95;;;5.30;;
18796;SDS011;9526;52.612;13.300;2023-08-06T00:15:30;8.07;;;4.97;;
18796;SDS011;9526;52.612;13.300;2023-08-06T00:17:54;7.80;;;5.03;;
18796;SDS011;9526;52.612;13.300;2023-08-06T00:20:17;7.63;;;5.03;;
18796;SDS011;9526;52.612;13.300;2023-08-06T00:22:42;8.15;;;4.63;;
18796;SDS011;9526;52.612;13.300;2023-08-06T00:25:05;8.15;;;5.18;;
18796;SDS011;9526;52.612;13.300;2023-08-06T00:27:30;6.38;;;4.93;;
18796;SDS011;9526;52.612;13.300;2023-08-06T00:29:56;8.93;;;5.68;;
18796;SDS011;9526;52.612;13.300;2023-08-06T00:32:19;9.45;;;5.32;;
18796;SDS011;9526;52.612;13.300;2023-08-06T00:34:43;10.15;;;5.57;;
18796;SDS011;9526;52.612;13.300;2023-08-06T00:37:08;9.45;;;5.93;;
18796;SDS011;9526;52.612;13.300;2023-08-06T00:39:33;8.13;;;4.95;;
18796;SDS011;9526;52.612;13.300;2023-08-06T00:41:56;7.75;;;5.45;;
18796;SDS011;9526;52.612;13.300;2023-08-06T00:44:20;8.02;;;4.90;;
18796;SDS011;9526;52.612;13.300;2023-08-06T00:46:46;8.30;;;4.93;;
18796;SDS011;9526;52.612;13.300;2023-08-06T00:49:10;10.60;;;6.03;;
18796;SDS011;9526;52.612;13.300;2023-08-06T00:51:33;7.55;;;5.40;;
18796;SDS011;9526;52.612;13.300;2023-08-06T00:53:58;10.80;;;5.32;;
18796;SDS011;9526;52.612;13.300;2023-08-06T00:56:21;8.45;;;5.63;;
18796;SDS011;9526;52.612;13.300;2023-08-06T00:58:45;9.80;;;5.72;;
18796;SDS011;9526;52.612;13.300;2023-08-06T01:01:09;8.75;;;5.97;;
18796;SDS011;9526;52.612;13.300;2023-08-06T01:03:35;10.07;;;5.53;;
18796;SDS011;9526;52.612;13.300;2023-08-06T01:05:58;7.75;;;5.50;;
18796;SDS011;9526;52.612;13.300;2023-08-06T01:08:26;6.90;;;5.13;;
18796;SDS011;9526;52.612;13.300;2023-08-06T01:11:00;11.35;;;5.43;;
18796;SDS011;9526;52.612;13.300;2023-08-06T01:13:37;9.30;;;6.70;;
18796;SDS011;9526;52.612;13.300;2023-08-06T01:16:05;8.43;;;5.60;;
18796;SDS011;9526;52.612;13.300;2023-08-06T01:18:30;7.53;;;5.18;;
18796;SDS011;9526;52.612;13.300;2023-08-06T01:20:56;7.38;;;5.72;;
18796;SDS011;9526;52.612;13.300;2023-08-06T01:23:20;8.07;;;5.78;;
18796;SDS011;9526;52.612;13.300;2023-08-06T01:25:46;8.82;;;6.25;;
18796;SDS011;9526;52.612;13.300;2023-08-06T01:28:21;10.55;;;5.93;;
18796;SDS011;9526;52.612;13.300;2023-08-06T01:30:52;10.23;;;5.72;;
18796;SDS011;9526;52.612;13.300;2023-08-06T01:33:19;9.20;;;6.63;;
18796;SDS011;9526;52.612;13.300;2023-08-06T01:35:45;9.68;;;5.70;;
18796;SDS011;9526;52.612;13.300;2023-08-06T01:38:12;10.63;;;6.82;;
18796;SDS011;9526;52.612;13.300;2023-08-06T01:40:36;9.40;;;6.88;;
18796;SDS011;9526;52.612;13.300;2023-08-06T01:42:59;8.43;;;6.72;;
18796;SDS011;9526;52.612;13.300;2023-08-06T01:45:23;8.88;;;6.53;;
18796;SDS011;9526;52.612;13.300;2023-08-06T01:47:46;12.30;;;7.15;;
18796;SDS011;9526;52.612;13.300;2023-08-06T01:50:10;10.52;;;6.65;;
18796;SDS011;9526;52.612;13.300;2023-08-06T01:52:34;9.38;;;6.22;;
18796;SDS011;9526;52.612;13.300;2023-08-06T01:54:59;8.55;;;6.63;;
18796;SDS011;9526;52.612;13.300;2023-08-06T01:57:23;10.80;;;6.63;;
18796;SDS011;9526;52.612;13.300;2023-08-06T01:59:46;9.15;;;5.97;;
18796;SDS011;9526;52.612;13.300;2023-08-06T02:02:10;9.88;;;6.65;;
18796;SDS011;9526;52.612;13.300;2023-08-06T02:04:34;9.35;;;6.40;;
18796;SDS011;9526;52.612;13.300;2023-08-06T02:06:59;8.88;;;6.50;;
18796;SDS011;9526;52.612;13.300;2023-08-06T02:09:23;11.18;;;7.03;;
18796;SDS011;9526;52.612;13.300;2023-08-06T02:11:48;8.95;;;6.72;;
18796;SDS011;9526;52.612;13.300;2023-08-06T02:14:12;9.75;;;6.57;;
18796;SDS011;9526;52.612;13.300;2023-08-06T02:16:35;9.88;;;6.65;;
18796;SDS011;9526;52.612;13.300;2023-08-06T02:18:59;8.82;;;6.90;;
18796;SDS011;9526;52.612;13.300;2023-08-06T02:21:23;10.73;;;7.00;;
18796;SDS011;9526;52.612;13.300;2023-08-06T02:23:48;12.48;;;6.85;;
18796;SDS011;9526;52.612;13.300;2023-08-06T02:26:11;9.98;;;6.28;;
18796;SDS011;9526;52.612;13.300;2023-08-06T02:28:36;10.25;;;7.00;;
18796;SDS011;9526;52.612;13.300;2023-08-06T02:31:00;10.15;;;7.22;;
18796;SDS011;9526;52.612;13.300;2023-08-06T02:33:24;9.30;;;7.13;;
18796;SDS011;9526;52.612;13.300;2023-08-06T02:35:49;9.88;;;6.72;;
18796;SDS011;9526;52.612;13.300;2023-08-06T02:38:13;8.88;;;7.00;;
18796;SDS011;9526;52.612;13.300;2023-08-06T02:40:42;9.75;;;6.97;;
18796;SDS011;9526;52.612;13.300;2023-08-06T02:43:07;9.52;;;6.90;;
18796;SDS011;9526;52.612;13.300;2023-08-06T02:45:32;9.90;;;6.88;;
18796;SDS011;9526;52.612;13.300;2023-08-06T02:47:55;10.15;;;6.93;;
18796;SDS011;9526;52.612;13.300;2023-08-06T02:50:19;10.73;;;7.05;;
18796;SDS011;9526;52.612;13.300;2023-08-06T02:52:43;9.77;;;7.15;;
18796;SDS011;9526;52.612;13.300;2023-08-06T02:55:06;8.93;;;6.93;;
18796;SDS011;9526;52.612;13.300;2023-08-06T02:57:35;9.18;;;6.93;;
18796;SDS011;9526;52.612;13.300;2023-08-06T02:59:58;9.65;;;6.90;;
18796;SDS011;9526;52.612;13.300;2023-08-06T03:02:24;9.82;;;7.13;;
18796;SDS011;9526;52.612;13.300;2023-08-06T03:04:54;9.68;;;6.13;;
18796;SDS011;9526;52.612;13.300;2023-08-06T03:07:21;8.85;;;6.50;;
18796;SDS011;9526;52.612;13.300;2023-08-06T03:09:54;8.77;;;6.57;;
18796;SDS011;9526;52.612;13.300;2023-08-06T03:12:19;9.55;;;6.68;;
18796;SDS011;9526;52.612;13.300;2023-08-06T03:14:43;11.35;;;6.63;;
18796;SDS011;9526;52.612;13.300;2023-08-06T03:17:07;9.75;;;6.93;;
18796;SDS011;9526;52.612;13.300;2023-08-06T03:19:32;10.38;;;6.60;;
18796;SDS011;9526;52.612;13.300;2023-08-06T03:21:57;10.18;;;7.22;;
18796;SDS011;9526;52.612;13.300;2023-08-06T03:24:22;9.63;;;6.72;;
18796;SDS011;9526;52.612;13.300;2023-08-06T03:26:46;9.70;;;6.78;;
18796;SDS011;9526;52.612;13.300;2023-08-06T03:29:09;10.82;;;7.60;;
18796;SDS011;9526;52.612;13.300;2023-08-06T03:31:34;9.68;;;7.40;;
18796;SDS011;9526;52.612;13.300;2023-08-06T03:33:58;11.18;;;7.78;;
18796;SDS011;9526;52.612;13.300;2023-08-06T03:36:25;9.88;;;6.93;;
18796;SDS011;9526;52.612;13.300;2023-08-06T03:38:49;10.38;;;6.95;;
18796;SDS011;9526;52.612;13.300;2023-08-06T03:41:13;11.18;;;8.00;;
18796;SDS011;9526;52.612;13.300;2023-08-06T03:43:37;11.50;;;7.80;;
18796;SDS011;9526;52.612;13.300;2023-08-06T03:46:06;11.55;;;7.40;;
18796;SDS011;9526;52.612;13.300;2023-08-06T03:48:29;10.25;;;7.57;;
18796;SDS011;9526;52.612;13.300;2023-08-06T03:50:53;10.27;;;7.75;;
18796;SDS011;9526;52.612;13.300;2023-08-06T03:53:21;11.15;;;8.07;;
18796;SDS011;9526;52.612;13.300;2023-08-06T03:55:44;10.65;;;7.75;;
18796;SDS011;9526;52.612;13.300;2023-08-06T03:58:08;9.52;;;7.22;;
18796;SDS011;9526;52.612;13.300;2023-08-06T04:00:32;9.85;;;7.13;;
18796;SDS011;9526;52.612;13.300;2023-08-06T04:02:56;9.65;;;7.40;;
18796;SDS011;9526;52.612;13.300;2023-08-06T04:05:21;10.32;;;7.75;;
18796;SDS011;9526;52.612;13.300;2023-08-06T04:07:45;10.45;;;7.70;;
18796;SDS011;9526;52.612;13.300;2023-08-06T04:10:10;10.35;;;7.20;;
18796;SDS011;9526;52.612;13.300;2023-08-06T04:12:33;10.80;;;7.68;;
18796;SDS011;9526;52.612;13.300;2023-08-06T04:15:00;10.18;;;7.10;;
18796;SDS011;9526;52.612;13.300;2023-08-06T04:17:25;12.48;;;8.07;;
18796;SDS011;9526;52.612;13.300;2023-08-06T04:19:49;11.23;;;7.00;;
18796;SDS011;9526;52.612;13.300;2023-08-06T04:22:14;9.98;;;7.43;;
18796;SDS011;9526;52.612;13.300;2023-08-06T04:24:38;12.50;;;8.25;;
18796;SDS011;9526;52.612;13.300;2023-08-06T04:27:03;12.80;;;7.00;;
18796;SDS011;9526;52.612;13.300;2023-08-06T04:29:27;10.07;;;7.30;;
18796;SDS011;9526;52.612;13.300;2023-08-06T04:31:52;9.95;;;7.97;;
18796;SDS011;9526;52.612;13.300;2023-08-06T04:34:16;12.57;;;8.30;;
18796;SDS011;9526;52.612;13.300;2023-08-06T04:36:40;12.73;;;8.40;;
18796;SDS011;9526;52.612;13.300;2023-08-06T04:39:04;10.95;;;8.10;;
18796;SDS011;9526;52.612;13.300;2023-08-06T04:41:28;11.77;;;8.15;;
18796;SDS011;9526;52.612;13.300;2023-08-06T04:43:53;11.63;;;8.05;;
18796;SDS011;9526;52.612;13.300;2023-08-06T04:46:17;12.32;;;7.75;;
18796;SDS011;9526;52.612;13.300;2023-08-06T04:48:41;10.65;;;7.72;;
18796;SDS011;9526;52.612;13.300;2023-08-06T04:51:05;12.52;;;8.38;;
18796;SDS011;9526;52.612;13.300;2023-08-06T04:53:32;14.07;;;9.60;;
18796;SDS011;9526;52.612;13.300;2023-08-06T04:55:57;14.75;;;8.48;;
18796;SDS011;9526;52.612;13.300;2023-08-06T04:58:21;11.55;;;8.48;;
18796;SDS011;9526;52.612;13.300;2023-08-06T05:00:46;11.95;;;8.70;;
18796;SDS011;9526;52.612;13.300;2023-08-06T05:03:09;11.45;;;8.50;;
18796;SDS011;9526;52.612;13.300;2023-08-06T05:05:33;12.45;;;8.27;;
18796;SDS011;9526;52.612;13.300;2023-08-06T05:07:57;13.38;;;7.90;;
18796;SDS011;9526;52.612;13.300;2023-08-06T05:10:20;10.18;;;7.68;;
18796;SDS011;9526;52.612;13.300;2023-08-06T05:12:44;12.13;;;8.25;;
18796;SDS011;9526;52.612;13.300;2023-08-06T05:15:08;13.57;;;8.38;;
18796;SDS011;9526;52.612;13.300;2023-08-06T05:17:33;9.65;;;7.18;;
18796;SDS011;9526;52.612;13.300;2023-08-06T05:19:57;11.38;;;7.68;;
18796;SDS011;9526;52.612;13.300;2023-08-06T05:22:21;11.75;;;7.45;;
18796;SDS011;9526;52.612;13.300;2023-08-06T05:24:45;10.30;;;7.60;;
18796;SDS011;9526;52.612;13.300;2023-08-06T05:27:09;10.13;;;7.18;;
18796;SDS011;9526;52.612;13.300;2023-08-06T05:29:33;10.60;;;7.13;;
18796;SDS011;9526;52.612;13.300;2023-08-06T05:31:57;9.80;;;7.35;;
18796;SDS011;9526;52.612;13.300;2023-08-06T05:34:22;10.15;;;7.53;;
18796;SDS011;9526;52.612;13.300;2023-08-06T05:36:46;10.45;;;7.53;;
18796;SDS011;9526;52.612;13.300;2023-08-06T05:39:10;11.73;;;7.30;;
18796;SDS011;9526;52.612;13.300;2023-08-06T05:41:34;9.60;;;7.07;;
18796;SDS011;9526;52.612;13.300;2023-08-06T05:43:57;10.75;;;7.00;;
18796;SDS011;9526;52.612;13.300;2023-08-06T05:46:24;10.57;;;7.50;;
18796;SDS011;9526;52.612;13.300;2023-08-06T05:48:48;10.57;;;6.90;;
18796;SDS011;9526;52.612;13.300;2023-08-06T05:51:13;10.00;;;7.55;;
18796;SDS011;9526;52.612;13.300;2023-08-06T05:53:38;9.55;;;6.80;;
18796;SDS011;9526;52.612;13.300;2023-08-06T05:56:02;10.15;;;6.90;;
18796;SDS011;9526;52.612;13.300;2023-08-06T05:58:25;11.25;;;6.75;;
18796;SDS011;9526;52.612;13.300;2023-08-06T06:00:50;9.88;;;6.50;;
18796;SDS011;9526;52.612;13.300;2023-08-06T06:03:15;11.05;;;6.85;;
18796;SDS011;9526;52.612;13.300;2023-08-06T06:05:38;10.23;;;6.25;;
18796;SDS011;9526;52.612;13.300;2023-08-06T06:08:04;10.63;;;6.80;;
18796;SDS011;9526;52.612;13.300;2023-08-06T06:10:28;8.85;;;6.45;;
18796;SDS011;9526;52.612;13.300;2023-08-06T06:12:53;10.52;;;6.10;;
18796;SDS011;9526;52.612;13.300;2023-08-06T06:15:19;8.27;;;6.07;;
18796;SDS011;9526;52.612;13.300;2023-08-06T06:17:43;10.30;;;6.63;;
18796;SDS011;9526;52.612;13.300;2023-08-06T06:20:07;8.85;;;6.40;;
18796;SDS011;9526;52.612;13.300;2023-08-06T06:22:31;9.20;;;6.57;;
18796;SDS011;9526;52.612;13.300;2023-08-06T06:24:56;8.95;;;6.88;;
18796;SDS011;9526;52.612;13.300;2023-08-06T06:27:20;10.45;;;6.95;;
18796;SDS011;9526;52.612;13.300;2023-08-06T06:29:44;11.88;;;7.40;;
18796;SDS011;9526;52.612;13.300;2023-08-06T06:32:09;9.02;;;6.97;;
18796;SDS011;9526;52.612;13.300;2023-08-06T06:34:43;9.75;;;7.50;;
18796;SDS011;9526;52.612;13.300;2023-08-06T06:37:11;10.73;;;7.57;;
18796;SDS011;9526;52.612;13.300;2023-08-06T06:39:39;10.80;;;7.95;;
18796;SDS011;9526;52.612;13.300;2023-08-06T06:42:07;11.35;;;7.63;;
18796;SDS011;9526;52.612;13.300;2023-08-06T06:44:38;12.27;;;7.82;;
18796;SDS011;9526;52.612;13.300;2023-08-06T06:47:02;11.55;;;7.70;;
18796;SDS011;9526;52.612;13.300;2023-08-06T06:49:26;11.13;;;7.82;;
18796;SDS011;9526;52.612;13.300;2023-08-06T06:51:51;10.70;;;7.63;;
18796;SDS011;9526;52.612;13.300;2023-08-06T06:54:16;9.90;;;7.80;;
18796;SDS011;9526;52.612;13.300;2023-08-06T06:56:40;14.95;;;8.48;;
18796;SDS011;9526;52.612;13.300;2023-08-06T06:59:07;12.55;;;8.45;;
18796;SDS011;9526;52.612;13.300;2023-08-06T07:01:31;11.00;;;7.63;;
18796;SDS011;9526;52.612;13.300;2023-08-06T07:03:55;11.85;;;8.13;;
18796;SDS011;9526;52.612;13.300;2023-08-06T07:06:18;10.20;;;7.80;;
18796;SDS011;9526;52.612;13.300;2023-08-06T07:08:42;12.23;;;7.93;;
18796;SDS011;9526;52.612;13.300;2023-08-06T07:11:06;9.43;;;7.38;;
18796;SDS011;9526;52.612;13.300;2023-08-06T07:13:30;10.25;;;7.50;;
18796;SDS011;9526;52.612;13.300;2023-08-06T07:15:55;10.93;;;7.47;;
18796;SDS011;9526;52.612;13.300;2023-08-06T07:18:19;9.15;;;7.25;;
18796;SDS011;9526;52.612;13.300;2023-08-06T07:20:47;8.98;;;6.80;;
18796;SDS011;9526;52.612;13.300;2023-08-06T07:23:11;10.77;;;7.65;;
18796;SDS011;9526;52.612;13.300;2023-08-06T07:25:35;9.23;;;7.03;;
18796;SDS011;9526;52.612;13.300;2023-08-06T07:27:58;10.40;;;7.40;;
18796;SDS011;9526;52.612;13.300;2023-08-06T07:30:24;8.20;;;6.53;;
18796;SDS011;9526;52.612;13.300;2023-08-06T07:32:49;10.40;;;6.70;;
18796;SDS011;9526;52.612;13.300;2023-08-06T07:35:13;10.48;;;7.57;;
18796;SDS011;9526;52.612;13.300;2023-08-06T07:37:36;10.13;;;7.28;;
18796;SDS011;9526;52.612;13.300;2023-08-06T07:40:01;9.65;;;7.43;;
18796;SDS011;9526;52.612;13.300;2023-08-06T07:42:36;10.43;;;7.47;;
18796;SDS011;9526;52.612;13.300;2023-08-06T07:45:06;10.35;;;7.35;;
18796;SDS011;9526;52.612;13.300;2023-08-06T07:47:37;9.57;;;6.97;;
18796;SDS011;9526;52.612;13.300;2023-08-06T07:50:14;10.60;;;7.20;;
18796;SDS011;9526;52.612;13.300;2023-08-06T07:52:38;9.65;;;7.25;;
18796;SDS011;9526;52.612;13.300;2023-08-06T07:55:06;12.43;;;7.60;;
18796;SDS011;9526;52.612;13.300;2023-08-06T07:57:33;10.50;;;7.75;;
18796;SDS011;9526;52.612;13.300;2023-08-06T08:00:13;11.48;;;8.27;;
18796;SDS011;9526;52.612;13.300;2023-08-06T08:02:40;11.27;;;8.75;;
18796;SDS011;9526;52.612;13.300;2023-08-06T08:05:09;12.90;;;8.02;;
18796;SDS011;9526;52.612;13.300;2023-08-06T08:07:34;11.13;;;8.23;;
18796;SDS011;9526;52.612;13.300;2023-08-06T08:10:00;10.95;;;7.45;;
18796;SDS011;9526;52.612;13.300;2023-08-06T08:12:24;11.52;;;8.32;;
18796;SDS011;9526;52.612;13.300;2023-08-06T08:14:49;12.07;;;8.15;;
18796;SDS011;9526;52.612;13.300;2023-08-06T08:17:30;11.80;;;8.68;;
18796;SDS011;9526;52.612;13.300;2023-08-06T08:20:02;11.18;;;8.43;;
18796;SDS011;9526;52.612;13.300;2023-08-06T08:22:38;12.68;;;8.20;;
18796;SDS011;9526;52.612;13.300;2023-08-06T08:25:05;11.10;;;7.50;;
18796;SDS011;9526;52.612;13.300;2023-08-06T08:27:31;12.18;;;8.52;;
18796;SDS011;9526;52.612;13.300;2023-08-06T08:30:00;10.73;;;8.13;;
18796;SDS011;9526;52.612;13.300;2023-08-06T08:32:25;10.77;;;8.13;;
18796;SDS011;9526;52.612;13.300;2023-08-06T08:34:50;13.05;;;8.52;;
18796;SDS011;9526;52.612;13.300;2023-08-06T08:37:14;12.88;;;8.32;;
18796;SDS011;9526;52.612;13.300;2023-08-06T08:39:39;11.25;;;8.00;;
18796;SDS011;9526;52.612;13.300;2023-08-06T08:42:03;11.93;;;8.55;;
18796;SDS011;9526;52.612;13.300;2023-08-06T08:44:28;9.88;;;7.63;;
18796;SDS011;9526;52.612;13.300;2023-08-06T08:46:53;13.30;;;8.40;;
18796;SDS011;9526;52.612;13.300;2023-08-06T08:49:18;12.93;;;8.13;;
18796;SDS011;9526;52.612;13.300;2023-08-06T08:51:43;12.77;;;9.13;;
18796;SDS011;9526;52.612;13.300;2023-08-06T08:54:08;11.52;;;8.35;;
18796;SDS011;9526;52.612;13.300;2023-08-06T08:56:37;13.07;;;9.00;;
18796;SDS011;9526;52.612;13.300;2023-08-06T08:59:01;12.80;;;9.15;;
18796;SDS011;9526;52.612;13.300;2023-08-06T09:01:24;11.80;;;7.82;;
18796;SDS011;9526;52.612;13.300;2023-08-06T09:03:50;11.05;;;8.38;;
18796;SDS011;9526;52.612;13.300;2023-08-06T09:06:16;14.05;;;9.00;;
18796;SDS011;9526;52.612;13.300;2023-08-06T09:08:43;12.25;;;8.65;;
18796;SDS011;9526;52.612;13.300;2023-08-06T09:11:13;11.43;;;8.00;;
18796;SDS011;9526;52.612;13.300;2023-08-06T09:13:39;12.10;;;8.63;;
18796;SDS011;9526;52.612;13.300;2023-08-06T09:16:03;13.27;;;8.93;;
18796;SDS011;9526;52.612;13.300;2023-08-06T09:18:27;14.07;;;8.13;;
18796;SDS011;9526;52.612;13.300;2023-08-06T09:20:52;10.60;;;8.15;;
18796;SDS011;9526;52.612;13.300;2023-08-06T09:23:15;11.80;;;7.85;;
18796;SDS011;9526;52.612;13.300;2023-08-06T09:25:39;9.95;;;7.85;;
18796;SDS011;9526;52.612;13.300;2023-08-06T09:28:03;10.32;;;7.82;;
18796;SDS011;9526;52.612;13.300;2023-08-06T09:30:37;10.63;;;8.20;;
18796;SDS011;9526;52.612;13.300;2023-08-06T09:33:22;10.70;;;7.60;;
18796;SDS011;9526;52.612;13.300;2023-08-06T09:35:53;11.55;;;8.75;;
18796;SDS011;9526;52.612;13.300;2023-08-06T09:38:31;13.05;;;8.63;;
18796;SDS011;9526;52.612;13.300;2023-08-06T09:41:05;12.10;;;8.85;;
18796;SDS011;9526;52.612;13.300;2023-08-06T09:43:44;12.00;;;8.93;;
18796;SDS011;9526;52.612;13.300;2023-08-06T09:46:21;13.07;;;9.00;;
18796;SDS011;9526;52.612;13.300;2023-08-06T09:48:48;14.07;;;9.10;;
18796;SDS011;9526;52.612;13.300;2023-08-06T09:51:14;12.43;;;8.88;;
18796;SDS011;9526;52.612;13.300;2023-08-06T09:53:38;12.27;;;8.88;;
18796;SDS011;9526;52.612;13.300;2023-08-06T09:56:04;10.57;;;8.23;;
18796;SDS011;9526;52.612;13.300;2023-08-06T09:58:32;13.07;;;8.57;;
18796;SDS011;9526;52.612;13.300;2023-08-06T10:00:56;11.43;;;8.07;;
18796;SDS011;9526;52.612;13.300;2023-08-06T10:03:22;11.10;;;8.15;;
18796;SDS011;9526;52.612;13.300;2023-08-06T10:05:48;11.80;;;8.45;;
18796;SDS011;9526;52.612;13.300;2023-08-06T10:08:29;11.05;;;8.48;;
18796;SDS011;9526;52.612;13.300;2023-08-06T10:11:06;13.00;;;9.13;;
18796;SDS011;9526;52.612;13.300;2023-08-06T10:13:32;10.55;;;7.68;;
18796;SDS011;9526;52.612;13.300;2023-08-06T10:16:04;14.55;;;8.10;;
18796;SDS011;9526;52.612;13.300;2023-08-06T10:18:35;7.18;;;5.20;;
18796;SDS011;9526;52.612;13.300;2023-08-06T10:21:07;6.57;;;5.10;;
18796;SDS011;9526;52.612;13.300;2023-08-06T10:23:35;5.70;;;4.55;;
18796;SDS011;9526;52.612;13.300;2023-08-06T10:26:00;5.35;;;4.30;;
18796;SDS011;9526;52.612;13.300;2023-08-06T10:28:24;5.22;;;3.92;;
18796;SDS011;9526;52.612;13.300;2023-08-06T10:30:58;5.57;;;4.10;;
18796;SDS011;9526;52.612;13.300;2023-08-06T10:33:21;5.82;;;4.80;;
18796;SDS011;9526;52.612;13.300;2023-08-06T10:35:48;7.40;;;5.43;;
18796;SDS011;9526;52.612;13.300;2023-08-06T10:38:20;6.68;;;5.10;;
18796;SDS011;9526;52.612;13.300;2023-08-06T10:41:00;6.28;;;4.95;;
18796;SDS011;9526;52.612;13.300;2023-08-06T10:43:28;6.55;;;5.32;;
18796;SDS011;9526;52.612;13.300;2023-08-06T10:45:55;7.68;;;5.13;;
18796;SDS011;9526;52.612;13.300;2023-08-06T10:48:28;7.95;;;5.55;;
18796;SDS011;9526;52.612;13.300;2023-08-06T10:50:55;8.65;;;5.68;;
18796;SDS011;9526;52.612;13.300;2023-08-06T10:53:20;7.45;;;5.72;;
18796;SDS011;9526;52.612;13.300;2023-08-06T10:55:45;7.93;;;5.70;;
18796;SDS011;9526;52.612;13.300;2023-08-06T10:58:09;10.35;;;6.53;;
18796;SDS011;9526;52.612;13.300;2023-08-06T11:00:41;8.13;;;6.30;;
18796;SDS011;9526;52.612;13.300;2023-08-06T11:03:05;10.32;;;7.18;;
18796;SDS011;9526;52.612;13.300;2023-08-06T11:05:29;8.15;;;6.32;;
18796;SDS011;9526;52.612;13.300;2023-08-06T11:07:55;8.27;;;6.40;;
18796;SDS011;9526;52.612;13.300;2023-08-06T11:10:19;8.82;;;5.75;;
18796;SDS011;9526;52.612;13.300;2023-08-06T11:12:42;9.13;;;5.90;;
18796;SDS011;9526;52.612;13.300;2023-08-06T11:15:07;9.98;;;6.22;;
18796;SDS011;9526;52.612;13.300;2023-08-06T11:17:33;8.57;;;6.53;;
18796;SDS011;9526;52.612;13.300;2023-08-06T11:19:58;8.98;;;6.72;;
18796;SDS011;9526;52.612;13.300;2023-08-06T11:22:23;11.20;;;7.40;;
18796;SDS011;9526;52.612;13.300;2023-08-06T11:24:48;8.80;;;7.07;;
18796;SDS011;9526;52.612;13.300;2023-08-06T11:27:13;11.15;;;7.63;;
18796;SDS011;9526;52.612;13.300;2023-08-06T11:29:45;9.98;;;7.13;;
18796;SDS011;9526;52.612;13.300;2023-08-06T11:32:20;9.27;;;7.13;;
18796;SDS011;9526;52.612;13.300;2023-08-06T11:34:49;12.55;;;7.20;;
18796;SDS011;9526;52.612;13.300;2023-08-06T11:37:14;10.65;;;7.50;;
18796;SDS011;9526;52.612;13.300;2023-08-06T11:39:41;10.68;;;7.38;;
18796;SDS011;9526;52.612;13.300;2023-08-06T11:42:14;10.45;;;6.97;;
18796;SDS011;9526;52.612;13.300;2023-08-06T11:44:40;10.48;;;7.28;;
18796;SDS011;9526;52.612;13.300;2023-08-06T11:47:11;10.25;;;7.57;;
18796;SDS011;9526;52.612;13.300;2023-08-06T11:49:42;9.35;;;6.80;;
18796;SDS011;9526;52.612;13.300;2023-08-06T11:52:10;9.55;;;6.95;;
18796;SDS011;9526;52.612;13.300;2023-08-06T11:54:42;9.32;;;7.07;;
18796;SDS011;9526;52.612;13.300;2023-08-06T11:57:07;9.57;;;7.22;;
18796;SDS011;9526;52.612;13.300;2023-08-06T11:59:38;11.77;;;7.40;;
18796;SDS011;9526;52.612;13.300;2023-08-06T12:02:03;11.00;;;7.63;;
18796;SDS011;9526;52.612;13.300;2023-08-06T12:04:28;10.48;;;7.45;;
18796;SDS011;9526;52.612;13.300;2023-08-06T12:06:52;9.75;;;7.55;;
18796;SDS011;9526;52.612;13.300;2023-08-06T12:09:17;10.27;;;7.22;;
18796;SDS011;9526;52.612;13.300;2023-08-06T12:11:43;13.05;;;8.40;;
18796;SDS011;9526;52.612;13.300;2023-08-06T12:14:07;10.73;;;8.07;;
18796;SDS011;9526;52.612;13.300;2023-08-06T12:16:35;11.30;;;8.02;;
18796;SDS011;9526;52.612;13.300;2023-08-06T12:19:04;10.00;;;7.68;;
18796;SDS011;9526;52.612;13.300;2023-08-06T12:21:28;12.15;;;8.05;;
18796;SDS011;9526;52.612;13.300;2023-08-06T12:23:54;12.20;;;8.40;;
18796;SDS011;9526;52.612;13.300;2023-08-06T12:26:19;8.90;;;6.72;;
18796;SDS011;9526;52.612;13.300;2023-08-06T12:28:43;11.38;;;7.60;;
18796;SDS011;9526;52.612;13.300;2023-08-06T12:31:08;9.68;;;7.30;;
18796;SDS011;9526;52.612;13.300;2023-08-06T12:33:33;9.95;;;7.13;;
18796;SDS011;9526;52.612;13.300;2023-08-06T12:35:57;9.57;;;7.40;;
18796;SDS011;9526;52.612;13.300;2023-08-06T12:38:21;8.77;;;7.00;;
18796;SDS011;9526;52.612;13.300;2023-08-06T12:40:45;9.18;;;7.05;;
18796;SDS011;9526;52.612;13.300;2023-08-06T12:43:10;10.00;;;7.35;;
18796;SDS011;9526;52.612;13.300;2023-08-06T12:45:36;11.82;;;7.70;;
18796;SDS011;9526;52.612;13.300;2023-08-06T12:48:00;10.98;;;7.30;;
18796;SDS011;9526;52.612;13.300;2023-08-06T12:50:25;9.90;;;7.10;;
18796;SDS011;9526;52.612;13.300;2023-08-06T12:52:50;11.63;;;7.63;;
18796;SDS011;9526;52.612;13.300;2023-08-06T12:55:13;11.02;;;8.10;;
18796;SDS011;9526;52.612;13.300;2023-08-06T12:57:37;10.55;;;7.53;;
18796;SDS011;9526;52.612;13.300;2023-08-06T13:00:18;11.25;;;7.85;;
18796;SDS011;9526;52.612;13.300;2023-08-06T13:02:42;14.35;;;7.75;;
18796;SDS011;9526;52.612;13.300;2023-08-06T13:05:06;11.23;;;8.00;;
18796;SDS011;9526;52.612;13.300;2023-08-06T13:07:33;10.93;;;7.82;;
18796;SDS011;9526;52.612;13.300;2023-08-06T13:09:57;12.02;;;8.27;;
18796;SDS011;9526;52.612;13.300;2023-08-06T13:12:23;11.02;;;7.50;;
18796;SDS011;9526;52.612;13.300;2023-08-06T13:14:52;11.48;;;7.40;;
18796;SDS011;9526;52.612;13.300;2023-08-06T13:17:19;11.70;;;7.40;;
18796;SDS011;9526;52.612;13.300;2023-08-06T13:19:42;10.30;;;7.10;;
18796;SDS011;9526;52.612;13.300;2023-08-06T13:22:06;14.43;;;7.75;;
18796;SDS011;9526;52.612;13.300;2023-08-06T13:24:32;9.90;;;6.88;;
18796;SDS011;9526;52.612;13.300;2023-08-06T13:26:57;9.57;;;6.85;;
18796;SDS011;9526;52.612;13.300;2023-08-06T13:29:21;10.00;;;6.97;;
18796;SDS011;9526;52.612;13.300;2023-08-06T13:31:45;10.38;;;6.88;;
18796;SDS011;9526;52.612;13.300;2023-08-06T13:34:11;10.23;;;6.45;;
18796;SDS011;9526;52.612;13.300;2023-08-06T13:36:35;9.15;;;6.28;;
18796;SDS011;9526;52.612;13.300;2023-08-06T13:38:59;9.15;;;6.15;;
18796;SDS011;9526;52.612;13.300;2023-08-06T13:41:26;8.30;;;5.40;;
18796;SDS011;9526;52.612;13.300;2023-08-06T13:43:51;9.80;;;6.03;;
18796;SDS011;9526;52.612;13.300;2023-08-06T13:46:15;7.47;;;4.93;;
18796;SDS011;9526;52.612;13.300;2023-08-06T13:48:43;8.05;;;5.70;;
18796;SDS011;9526;52.612;13.300;2023-08-06T13:51:08;8.43;;;4.47;;
18796;SDS011;9526;52.612;13.300;2023-08-06T13:53:32;6.95;;;4.90;;
18796;SDS011;9526;52.612;13.300;2023-08-06T13:55:56;6.65;;;4.18;;
18796;SDS011;9526;52.612;13.300;2023-08-06T13:58:21;6.05;;;4.25;;
18796;SDS011;9526;52.612;13.300;2023-08-06T14:00:47;4.88;;;3.85;;
18796;SDS011;9526;52.612;13.300;2023-08-06T14:03:14;7.00;;;3.90;;
18796;SDS011;9526;52.612;13.300;2023-08-06T14:05:38;5.45;;;4.03;;
18796;SDS011;9526;52.612;13.300;2023-08-06T14:08:02;5.97;;;3.95;;
18796;SDS011;9526;52.612;13.300;2023-08-06T14:10:26;5.10;;;3.92;;
18796;SDS011;9526;52.612;13.300;2023-08-06T14:12:50;6.32;;;3.90;;
18796;SDS011;9526;52.612;13.300;2023-08-06T14:15:32;6.53;;;4.00;;
18796;SDS011;9526;52.612;13.300;2023-08-06T14:17:57;6.20;;;4.03;;
18796;SDS011;9526;52.612;13.300;2023-08-06T14:20:22;6.68;;;4.20;;
18796;SDS011;9526;52.612;13.300;2023-08-06T14:22:46;6.80;;;4.05;;
18796;SDS011;9526;52.612;13.300;2023-08-06T14:25:10;5.18;;;3.50;;
18796;SDS011;9526;52.612;13.300;2023-08-06T14:27:33;5.57;;;4.00;;
18796;SDS011;9526;52.612;13.300;2023-08-06T14:29:57;7.30;;;2.90;;
18796;SDS011;9526;52.612;13.300;2023-08-06T14:32:23;3.70;;;3.00;;